Terminal Aerodrome Forecast
Issued by NWS

Home | Current Version | Previous Version | Text Only | Print | Product List | Glossary On
Versions: 1 2 3 4 5 6 7 8 9 10 11 12 13 14 15 16
000
FTUS43 KDMX 271127
TAFFOD
TAF
KFOD 271127Z 2712/2812 11006KT P6SM BKN045 OVC080
     FM271800 18007KT P6SM BKN035
     FM280500 15005KT 5SM -TSRA SCT012CB OVC050CB
     FM280900 16004KT 2SM TSRA SCT008 OVC012CB=

USA.gov is the U.S. government's official web portal to all federal, state and local government web resources and services.